Time;durP1;ratioP1;P1;durP2;ratioP2;P2;SDS_P1;SDS_P2;PMS_P1;PMS_P2;Temp;Humidity;BMP_temperature;BMP_pressure;BME280_temperature;BME280_humidity;BME280_pressure;Samples;Min_cycle;Max_cycle;Signal;HPM_P1;HPM_P2
2022/05/15 00:03:18;;;;;;;;;;;13.40;99.90;;;;;;5038092;28;19915;-85
2022/05/15 00:12:20;;;;;;;;;;;13.30;99.90;;;;;;5057334;28;19916;-85
2022/05/15 00:18:06;;;;;;;;;;;13.10;99.90;;;;;;5067033;28;19951;-85
2022/05/15 00:20:32;;;;;;;;;;;13.00;99.90;;;;;;5075728;28;19915;-85
2022/05/15 00:26:01;;;;;;;;;;;12.90;99.90;;;;;;5051559;28;19958;-85
2022/05/15 00:28:26;;;;;;;;;;;12.80;99.90;;;;;;5077119;28;19929;-73
2022/05/15 00:30:52;;;;;;;;;;;12.80;1.00;;;;;;5058009;28;20360;-73
2022/05/15 00:33:18;;;;;;;;;;;12.70;1.00;;;;;;5056767;28;20253;-73
2022/05/15 00:35:44;;;;;;;;;;;12.70;1.00;;;;;;5056558;28;19916;-73
2022/05/15 00:38:11;;;;;;;;;;;12.60;1.00;;;;;;5089083;28;19909;-73
2022/05/15 00:40:38;;;;;;;;;;;12.60;1.00;;;;;;5058310;28;20023;-73
2022/05/15 00:43:25;;;;;;;;;;;12.50;1.00;;;;;;5056849;28;19912;-74
2022/05/15 00:45:51;;;;;;;;;;;12.50;1.00;;;;;;5046538;28;19935;-73
2022/05/15 00:48:17;;;;;;;;;;;12.40;1.00;;;;;;5069782;28;20380;-74
2022/05/15 00:50:42;;;;;;;;;;;12.40;1.00;;;;;;5056102;28;19961;-73
2022/05/15 00:53:12;;;;;;;;;;;12.40;1.00;;;;;;5059484;28;19974;-73
2022/05/15 00:55:43;;;;;;;;;;;12.30;1.00;;;;;;5065576;28;19913;-74
2022/05/15 00:58:15;;;;;;;;;;;12.30;1.00;;;;;;5060717;28;19920;-74
2022/05/15 01:00:41;;;;;;;;;;;12.30;1.00;;;;;;5073310;28;20258;-74
2022/05/15 01:03:14;;;;;;;;;;;12.20;1.00;;;;;;5062682;28;20310;-74
2022/05/15 01:06:00;;;;;;;;;;;12.20;1.00;;;;;;5063006;28;19909;-73
2022/05/15 01:08:27;;;;;;;;;;;12.10;1.00;;;;;;5054126;28;20329;-74
2022/05/15 01:11:04;;;;;;;;;;;12.10;1.00;;;;;;5063823;28;19915;-74
2022/05/15 01:13:32;;;;;;;;;;;12.10;1.00;;;;;;5058480;28;19951;-73
2022/05/15 01:15:58;;;;;;;;;;;12.00;1.00;;;;;;5073418;28;19920;-74
2022/05/15 01:18:25;;;;;;;;;;;12.00;1.00;;;;;;5074636;28;19908;-73
2022/05/15 01:20:54;;;;;;;;;;;12.00;1.00;;;;;;5058232;28;19909;-74
2022/05/15 01:23:20;;;;;;;;;;;12.00;1.00;;;;;;5055884;28;19915;-74
2022/05/15 01:25:46;;;;;;;;;;;11.90;1.00;;;;;;5060202;28;20308;-74
2022/05/15 01:34:17;;;;;;;;;;;11.90;1.00;;;;;;5052171;28;19957;-85
2022/05/15 01:39:46;;;;;;;;;;;11.90;1.00;;;;;;5055515;28;19983;-85
2022/05/15 01:42:24;;;;;;;;;;;11.80;1.00;;;;;;5069359;28;20352;-85
2022/05/15 02:09:13;;;;;;;;;;;11.60;1.00;;;;;;5061691;28;19916;-85
2022/05/15 02:11:41;;;;;;;;;;;11.60;1.00;;;;;;5106276;28;19908;-86
2022/05/15 02:14:12;;;;;;;;;;;11.60;1.00;;;;;;5059432;28;19999;-74
2022/05/15 02:16:37;;;;;;;;;;;11.60;1.00;;;;;;5054855;28;19967;-74
2022/05/15 02:19:06;;;;;;;;;;;11.60;1.00;;;;;;5041475;28;20315;-74
2022/05/15 02:21:32;;;;;;;;;;;11.60;1.00;;;;;;5044239;28;20324;-74
2022/05/15 02:24:06;;;;;;;;;;;11.60;1.00;;;;;;5038193;28;20007;-74
2022/05/15 02:26:31;;;;;;;;;;;11.50;1.00;;;;;;5043448;28;19956;-74
2022/05/15 02:28:57;;;;;;;;;;;11.50;1.00;;;;;;5039445;28;19920;-74
2022/05/15 02:31:23;;;;;;;;;;;11.50;1.00;;;;;;5047815;28;19963;-74
2022/05/15 02:33:48;;;;;;;;;;;11.50;1.00;;;;;;5052169;28;19916;-74
2022/05/15 02:36:14;;;;;;;;;;;11.50;1.00;;;;;;5054469;28;19908;-74
2022/05/15 02:38:42;;;;;;;;;;;11.40;1.00;;;;;;5053745;28;19932;-74
2022/05/15 02:41:18;;;;;;;;;;;11.40;1.00;;;;;;5043319;28;19917;-74
2022/05/15 02:43:43;;;;;;;;;;;11.40;1.00;;;;;;5048084;28;19913;-74
2022/05/15 02:46:09;;;;;;;;;;;11.40;1.00;;;;;;5034442;28;19909;-74
2022/05/15 02:51:19;;;;;;;;;;;11.30;1.00;;;;;;5034099;28;20275;-74
2022/05/15 02:53:45;;;;;;;;;;;11.40;1.00;;;;;;5042084;28;19909;-74
2022/05/15 02:56:16;;;;;;;;;;;11.40;1.00;;;;;;5039287;28;20007;-74
2022/05/15 02:58:42;;;;;;;;;;;11.40;1.00;;;;;;5043088;28;19947;-74
2022/05/15 03:01:08;;;;;;;;;;;11.30;1.00;;;;;;5032896;28;19917;-74
2022/05/15 03:03:34;;;;;;;;;;;11.30;1.00;;;;;;5016262;28;20008;-74
2022/05/15 03:05:59;;;;;;;;;;;11.30;1.00;;;;;;5049936;28;19913;-74
2022/05/15 03:08:37;;;;;;;;;;;11.20;1.00;;;;;;5053901;28;19999;-74
2022/05/15 03:11:03;;;;;;;;;;;11.20;1.00;;;;;;5018993;28;20290;-74
2022/05/15 03:13:28;;;;;;;;;;;11.20;1.00;;;;;;5040351;28;19999;-74
2022/05/15 03:15:54;;;;;;;;;;;11.20;1.00;;;;;;5051250;28;20011;-75
2022/05/15 03:18:20;;;;;;;;;;;11.20;1.00;;;;;;5053679;28;19909;-74
2022/05/15 03:20:45;;;;;;;;;;;11.20;1.00;;;;;;5053904;28;20337;-74
2022/05/15 03:23:11;;;;;;;;;;;11.20;1.00;;;;;;5049841;28;19913;-75
2022/05/15 03:25:37;;;;;;;;;;;11.10;1.00;;;;;;5053894;28;19909;-74
2022/05/15 03:28:09;;;;;;;;;;;11.10;1.00;;;;;;5035794;28;19921;-74
2022/05/15 03:30:38;;;;;;;;;;;11.10;1.00;;;;;;5039630;28;19959;-85
2022/05/15 03:36:12;;;;;;;;;;;11.10;1.00;;;;;;5014386;28;19933;-85
2022/05/15 03:41:41;;;;;;;;;;;11.10;1.00;;;;;;5054000;28;19958;-85
2022/05/15 03:47:18;;;;;;;;;;;11.00;1.00;;;;;;5053983;28;19920;-85
2022/05/15 03:49:48;;;;;;;;;;;11.10;1.00;;;;;;5040571;28;19909;-85
2022/05/15 03:55:17;;;;;;;;;;;11.00;1.00;;;;;;5014504;28;19915;-85
2022/05/15 04:00:46;;;;;;;;;;;11.10;1.00;;;;;;5044148;28;20256;-74
2022/05/15 04:03:12;;;;;;;;;;;11.20;1.00;;;;;;5039841;28;19909;-74
2022/05/15 04:05:37;;;;;;;;;;;11.20;1.00;;;;;;5045874;28;19948;-74
2022/05/15 04:08:03;;;;;;;;;;;11.20;1.00;;;;;;5039903;28;19961;-74
2022/05/15 04:10:30;;;;;;;;;;;11.20;1.00;;;;;;5053550;28;20268;-74
2022/05/15 04:12:55;;;;;;;;;;;11.30;1.00;;;;;;5035599;28;19935;-74
2022/05/15 04:15:21;;;;;;;;;;;11.30;1.00;;;;;;5033985;28;19955;-75
2022/05/15 04:17:49;;;;;;;;;;;11.40;1.00;;;;;;5064843;28;19916;-74
2022/05/15 04:20:20;;;;;;;;;;;11.40;1.00;;;;;;5066031;28;19915;-74
2022/05/15 04:22:46;;;;;;;;;;;11.40;1.00;;;;;;5059697;28;19967;-74
2022/05/15 04:25:12;;;;;;;;;;;11.50;1.00;;;;;;5053706;28;19912;-74
2022/05/15 04:27:38;;;;;;;;;;;11.50;1.00;;;;;;5072801;28;19924;-74
2022/05/15 04:30:06;;;;;;;;;;;11.60;1.00;;;;;;5060874;28;20303;-74
2022/05/15 04:32:42;;;;;;;;;;;11.60;1.00;;;;;;5063458;28;19908;-74
2022/05/15 04:35:08;;;;;;;;;;;11.70;1.00;;;;;;5092016;28;20043;-74
2022/05/15 04:37:34;;;;;;;;;;;11.80;1.00;;;;;;5064470;28;19908;-74
2022/05/15 04:40:00;;;;;;;;;;;11.90;1.00;;;;;;5062328;28;20343;-74
2022/05/15 04:42:31;;;;;;;;;;;12.00;1.00;;;;;;5064240;28;19916;-74
2022/05/15 04:57:08;;;;;;;;;;;12.30;1.00;;;;;;5037043;28;19919;-85
2022/05/15 04:59:33;;;;;;;;;;;12.40;1.00;;;;;;5042704;28;19991;-74
2022/05/15 05:01:59;;;;;;;;;;;12.50;1.00;;;;;;5076374;28;19908;-74
2022/05/15 05:04:30;;;;;;;;;;;12.50;1.00;;;;;;5074267;28;19932;-74
2022/05/15 05:06:55;;;;;;;;;;;12.60;1.00;;;;;;5066319;28;19962;-74
2022/05/15 05:09:21;;;;;;;;;;;12.60;1.00;;;;;;5059395;28;19995;-74
2022/05/15 05:11:46;;;;;;;;;;;12.70;1.00;;;;;;5066506;28;19970;-74
2022/05/15 05:14:24;;;;;;;;;;;12.80;1.00;;;;;;5055218;28;19913;-74
2022/05/15 05:16:49;;;;;;;;;;;12.90;1.00;;;;;;5051368;28;19923;-74
2022/05/15 05:19:15;;;;;;;;;;;12.90;1.00;;;;;;5042534;28;19912;-74
2022/05/15 05:21:41;;;;;;;;;;;13.00;1.00;;;;;;5044767;28;19909;-74
2022/05/15 05:24:12;;;;;;;;;;;13.10;1.00;;;;;;5035733;28;19940;-74
2022/05/15 05:26:37;;;;;;;;;;;13.20;1.00;;;;;;5039205;28;19923;-74
2022/05/15 05:29:06;;;;;;;;;;;13.30;1.00;;;;;;5042868;28;20004;-75
2022/05/15 05:31:31;;;;;;;;;;;13.40;1.00;;;;;;5056060;28;19909;-75
2022/05/15 05:33:57;;;;;;;;;;;13.50;1.00;;;;;;5042401;28;19959;-74
2022/05/15 05:36:23;;;;;;;;;;;13.60;1.00;;;;;;5042959;28;19963;-74
2022/05/15 05:38:48;;;;;;;;;;;13.70;1.00;;;;;;5048986;28;19919;-74
2022/05/15 05:41:14;;;;;;;;;;;13.80;1.00;;;;;;5047012;28;19908;-74
2022/05/15 05:43:40;;;;;;;;;;;13.90;1.00;;;;;;5044827;28;19940;-74
2022/05/15 05:46:05;;;;;;;;;;;14.00;1.00;;;;;;5044399;28;19921;-75
2022/05/15 05:48:31;;;;;;;;;;;14.20;1.00;;;;;;5048905;28;19920;-74
2022/05/15 05:51:00;;;;;;;;;;;14.30;1.00;;;;;;5035537;28;19955;-74
2022/05/15 05:53:25;;;;;;;;;;;14.40;1.00;;;;;;5053878;28;19909;-74
2022/05/15 05:55:51;;;;;;;;;;;14.60;1.00;;;;;;5030625;28;19932;-75
2022/05/15 05:58:17;;;;;;;;;;;14.70;1.00;;;;;;5040095;28;19909;-74
2022/05/15 06:00:42;;;;;;;;;;;14.80;99.90;;;;;;5040035;28;19909;-75
2022/05/15 06:05:56;;;;;;;;;;;15.10;99.90;;;;;;5039926;28;19916;-75
2022/05/15 06:08:27;;;;;;;;;;;15.20;99.90;;;;;;5043797;28;19916;-74
2022/05/15 06:10:53;;;;;;;;;;;15.30;99.90;;;;;;5052372;28;19909;-74
2022/05/15 06:13:25;;;;;;;;;;;15.40;99.90;;;;;;5041282;28;19909;-74
2022/05/15 06:15:51;;;;;;;;;;;15.50;99.90;;;;;;5053829;28;19910;-75
2022/05/15 06:18:17;;;;;;;;;;;15.70;99.90;;;;;;5074857;28;19909;-75
2022/05/15 06:20:43;;;;;;;;;;;15.70;99.90;;;;;;5061575;28;19916;-75
2022/05/15 06:23:08;;;;;;;;;;;15.90;99.90;;;;;;5064248;28;19913;-75
2022/05/15 06:25:34;;;;;;;;;;;15.90;99.90;;;;;;5067747;28;19909;-73
2022/05/15 06:28:00;;;;;;;;;;;16.10;99.90;;;;;;5059853;28;19920;-73
2022/05/15 06:30:30;;;;;;;;;;;16.10;99.90;;;;;;5061431;28;20362;-73
2022/05/15 06:32:55;;;;;;;;;;;16.30;99.90;;;;;;5061912;28;19950;-73
2022/05/15 06:35:21;;;;;;;;;;;16.40;99.90;;;;;;5058690;28;20317;-73
2022/05/15 06:37:47;;;;;;;;;;;16.50;99.90;;;;;;5057960;28;19943;-73
2022/05/15 06:40:13;;;;;;;;;;;16.60;99.90;;;;;;5066901;28;19951;-73
2022/05/15 06:42:40;;;;;;;;;;;16.80;99.90;;;;;;5072311;28;19912;-73
2022/05/15 06:45:06;;;;;;;;;;;16.90;99.90;;;;;;5057229;28;19909;-71
2022/05/15 06:47:32;;;;;;;;;;;17.00;99.90;;;;;;5062850;28;19916;-71
2022/05/15 06:49:58;;;;;;;;;;;17.10;99.90;;;;;;5071809;28;20426;-72
2022/05/15 06:52:24;;;;;;;;;;;17.20;99.90;;;;;;5062063;28;20371;-72
2022/05/15 06:54:50;;;;;;;;;;;17.30;99.90;;;;;;5064866;28;19920;-72
2022/05/15 06:57:31;;;;;;;;;;;17.50;99.90;;;;;;5058646;28;20063;-72
2022/05/15 07:00:02;;;;;;;;;;;17.60;99.90;;;;;;5056965;28;19916;-71
2022/05/15 07:02:29;;;;;;;;;;;17.80;99.90;;;;;;5052483;28;19913;-72
2022/05/15 07:04:55;;;;;;;;;;;18.00;99.90;;;;;;5057309;28;19920;-72
2022/05/15 07:07:20;;;;;;;;;;;18.20;99.90;;;;;;5062820;28;19917;-72
2022/05/15 07:09:46;;;;;;;;;;;18.40;99.90;;;;;;5060454;28;19963;-72
2022/05/15 07:12:12;;;;;;;;;;;18.60;99.90;;;;;;5065888;28;19908;-72
2022/05/15 07:14:37;;;;;;;;;;;18.80;99.90;;;;;;5060956;28;19912;-72
2022/05/15 07:17:03;;;;;;;;;;;18.90;99.90;;;;;;5066719;28;20367;-72
2022/05/15 07:19:29;;;;;;;;;;;19.00;99.90;;;;;;5065056;28;19959;-72
2022/05/15 07:21:54;;;;;;;;;;;19.20;99.90;;;;;;5073020;28;20271;-72
2022/05/15 07:24:22;;;;;;;;;;;19.30;99.90;;;;;;5067074;28;19920;-72
2022/05/15 07:26:48;;;;;;;;;;;19.40;99.90;;;;;;5060005;28;19923;-72
2022/05/15 07:29:14;;;;;;;;;;;19.50;99.90;;;;;;5064888;28;20074;-71
2022/05/15 07:31:40;;;;;;;;;;;19.60;99.90;;;;;;5066733;28;19934;-72
2022/05/15 07:34:05;;;;;;;;;;;19.80;99.90;;;;;;5072860;28;19998;-72
2022/05/15 07:36:31;;;;;;;;;;;20.00;99.90;;;;;;5067011;28;19912;-72
2022/05/15 07:38:57;;;;;;;;;;;20.10;99.90;;;;;;5059090;28;19920;-72
2022/05/15 07:41:22;;;;;;;;;;;20.10;99.90;;;;;;5071254;28;20438;-72
2022/05/15 07:43:48;;;;;;;;;;;20.30;99.90;;;;;;5067641;28;20368;-72
2022/05/15 07:46:13;;;;;;;;;;;20.40;99.90;;;;;;5066220;28;20275;-72
2022/05/15 07:48:39;;;;;;;;;;;20.40;99.90;;;;;;5070143;28;19963;-72
2022/05/15 07:51:04;;;;;;;;;;;20.60;99.90;;;;;;5066001;28;19977;-72
2022/05/15 07:53:30;;;;;;;;;;;20.70;99.90;;;;;;5069582;28;20069;-71
2022/05/15 07:55:59;;;;;;;;;;;20.80;99.90;;;;;;5069916;28;20398;-72
2022/05/15 07:58:25;;;;;;;;;;;20.90;99.90;;;;;;5046104;28;19909;-71
2022/05/15 08:00:53;;;;;;;;;;;21.00;99.90;;;;;;5054167;28;19913;-73
2022/05/15 08:03:19;;;;;;;;;;;21.10;99.90;;;;;;5072718;28;19917;-74
2022/05/15 08:08:28;;;;;;;;;;;21.30;99.90;;;;;;5076358;28;19969;-74
2022/05/15 08:10:54;;;;;;;;;;;21.40;99.90;;;;;;5062783;28;19913;-74
2022/05/15 08:13:21;;;;;;;;;;;21.50;99.90;;;;;;5065991;28;20368;-73
2022/05/15 08:15:47;;;;;;;;;;;21.60;99.90;;;;;;5072385;28;19979;-73
2022/05/15 08:23:49;;;;;;;;;;;21.80;99.90;;;;;;5072502;28;19935;-73
2022/05/15 08:26:15;;;;;;;;;;;21.90;99.90;;;;;;5073991;28;19915;-73
2022/05/15 08:28:41;;;;;;;;;;;22.00;99.90;;;;;;5069072;28;19921;-73
2022/05/15 08:31:07;;;;;;;;;;;22.10;99.90;;;;;;5067164;28;19912;-73
2022/05/15 08:33:34;;;;;;;;;;;22.20;99.90;;;;;;5071744;28;19908;-73
2022/05/15 08:35:59;;;;;;;;;;;22.30;99.90;;;;;;5075780;28;20397;-73
2022/05/15 08:38:25;;;;;;;;;;;22.40;99.90;;;;;;5061963;28;19913;-73
2022/05/15 08:41:09;;;;;;;;;;;22.40;99.90;;;;;;5064713;28;19964;-73
2022/05/15 08:43:43;;;;;;;;;;;22.30;99.90;;;;;;5074253;28;19944;-73
2022/05/15 08:46:27;;;;;;;;;;;22.30;99.90;;;;;;5071605;28;20011;-73
2022/05/15 08:48:59;;;;;;;;;;;22.50;99.90;;;;;;5044301;28;19962;-73
2022/05/15 08:51:25;;;;;;;;;;;22.60;99.90;;;;;;5060080;28;19913;-73
2022/05/15 08:53:51;;;;;;;;;;;22.70;99.90;;;;;;5064582;28;20008;-73
2022/05/15 08:56:16;;;;;;;;;;;22.90;99.90;;;;;;5065500;28;19913;-74
2022/05/15 08:58:50;;;;;;;;;;;23.00;99.90;;;;;;5064616;28;19909;-74
2022/05/15 09:01:20;;;;;;;;;;;23.20;99.90;;;;;;5055799;28;19912;-73
2022/05/15 09:03:47;;;;;;;;;;;23.40;99.90;;;;;;5070725;28;19927;-74
2022/05/15 09:06:22;;;;;;;;;;;23.40;99.90;;;;;;5068922;28;19912;-74
2022/05/15 09:08:54;;;;;;;;;;;23.50;99.90;;;;;;5067340;28;19962;-74
2022/05/15 09:11:26;;;;;;;;;;;23.60;99.90;;;;;;5069915;28;19912;-74
2022/05/15 09:13:54;;;;;;;;;;;23.60;99.90;;;;;;5060909;28;19913;-74
2022/05/15 09:16:24;;;;;;;;;;;23.80;99.90;;;;;;5074464;28;19917;-74
2022/05/15 09:18:50;;;;;;;;;;;24.00;99.90;;;;;;5075323;28;19908;-74
2022/05/15 09:21:17;;;;;;;;;;;24.10;99.90;;;;;;5073526;28;20275;-74
2022/05/15 09:23:56;;;;;;;;;;;24.30;99.90;;;;;;5069393;28;19948;-74
2022/05/15 09:26:29;;;;;;;;;;;24.40;99.90;;;;;;5061831;28;20185;-74
2022/05/15 09:28:58;;;;;;;;;;;24.60;99.90;;;;;;5072383;28;19952;-74
2022/05/15 09:31:26;;;;;;;;;;;24.80;99.90;;;;;;5074882;28;19954;-74
2022/05/15 09:34:11;;;;;;;;;;;24.90;99.90;;;;;;5056468;28;19913;-73
2022/05/15 09:36:41;;;;;;;;;;;24.90;99.90;;;;;;5064649;28;20283;-74
2022/05/15 09:39:09;;;;;;;;;;;25.00;99.90;;;;;;5062910;28;20003;-73
2022/05/15 09:44:26;;;;;;;;;;;25.10;99.90;;;;;;5055419;28;19919;-74
2022/05/15 09:46:56;;;;;;;;;;;25.10;99.90;;;;;;5061192;28;20011;-73
2022/05/15 09:49:24;;;;;;;;;;;25.00;99.90;;;;;;5063092;28;19909;-73
2022/05/15 09:51:52;;;;;;;;;;;25.00;99.90;;;;;;5054488;28;19916;-74
2022/05/15 09:54:30;;;;;;;;;;;25.00;99.90;;;;;;5054661;28;20315;-75
2022/05/15 09:57:18;;;;;;;;;;;25.00;99.90;;;;;;5041513;28;20012;-75
2022/05/15 09:59:50;;;;;;;;;;;25.10;99.90;;;;;;5057346;28;19909;-75
2022/05/15 10:02:20;;;;;;;;;;;25.10;99.90;;;;;;5054765;28;19936;-72
2022/05/15 10:04:47;;;;;;;;;;;25.30;99.90;;;;;;5057717;28;19916;-73
2022/05/15 10:07:27;;;;;;;;;;;25.30;99.90;;;;;;5078888;28;19986;-72
2022/05/15 10:09:53;;;;;;;;;;;25.40;99.90;;;;;;5062953;28;20017;-72
2022/05/15 10:12:24;;;;;;;;;;;25.50;99.90;;;;;;5099334;28;19999;-73
2022/05/15 10:14:54;;;;;;;;;;;25.60;99.90;;;;;;5061949;28;20336;-73
2022/05/15 10:17:24;;;;;;;;;;;25.60;99.90;;;;;;5067410;28;19917;-73
2022/05/15 10:19:52;;;;;;;;;;;25.60;99.90;;;;;;5073925;28;20421;-74
2022/05/15 10:22:34;;;;;;;;;;;25.70;99.90;;;;;;5069786;28;20972;-74
2022/05/15 10:25:05;;;;;;;;;;;25.80;99.90;;;;;;5069461;28;19917;-76
2022/05/15 10:27:32;;;;;;;;;;;25.80;99.90;;;;;;5066724;28;19921;-74
2022/05/15 10:30:11;;;;;;;;;;;25.70;99.90;;;;;;5070850;28;19909;-74
2022/05/15 10:32:55;;;;;;;;;;;25.60;99.90;;;;;;5035263;28;19909;-74
2022/05/15 10:35:45;;;;;;;;;;;25.70;99.90;;;;;;5057026;28;19909;-74
2022/05/15 10:38:24;;;;;;;;;;;25.80;99.90;;;;;;5038955;28;19909;-74
2022/05/15 10:40:56;;;;;;;;;;;25.60;99.90;;;;;;5031247;28;19913;-78
2022/05/15 10:43:40;;;;;;;;;;;25.80;99.90;;;;;;5034846;28;20493;-73
2022/05/15 10:46:19;;;;;;;;;;;25.90;99.90;;;;;;5033714;28;19986;-73
2022/05/15 10:48:56;;;;;;;;;;;26.00;99.90;;;;;;5027821;28;19956;-73
2022/05/15 10:51:33;;;;;;;;;;;26.20;99.90;;;;;;5051413;28;19995;-75
2022/05/15 10:59:49;;;;;;;;;;;26.70;99.90;;;;;;5033536;28;19963;-74
2022/05/15 11:02:20;;;;;;;;;;;26.80;99.90;;;;;;5031817;28;19921;-75
2022/05/15 11:04:57;;;;;;;;;;;26.80;99.90;;;;;;5051481;28;19995;-75
2022/05/15 11:07:41;;;;;;;;;;;26.90;99.90;;;;;;5035627;28;19948;-75
2022/05/15 11:10:11;;;;;;;;;;;27.00;99.90;;;;;;5042018;28;19909;-75
2022/05/15 11:12:39;;;;;;;;;;;27.10;99.90;;;;;;5041503;28;20348;-74
2022/05/15 11:15:23;;;;;;;;;;;27.20;99.90;;;;;;5032134;28;20000;-74
2022/05/15 11:18:14;;;;;;;;;;;27.40;99.90;;;;;;5053798;28;20343;-74
2022/05/15 11:20:46;;;;;;;;;;;27.40;99.90;;;;;;4979555;28;20368;-74
2022/05/15 11:23:12;;;;;;;;;;;27.30;99.90;;;;;;5001571;28;19948;-74
2022/05/15 11:25:58;;;;;;;;;;;27.40;99.90;;;;;;4997430;28;20065;-73
2022/05/15 11:28:31;;;;;;;;;;;27.50;99.90;;;;;;4988518;28;20332;-74
2022/05/15 11:31:01;;;;;;;;;;;27.60;99.90;;;;;;4992313;28;20025;-74
2022/05/15 11:33:47;;;;;;;;;;;27.70;99.90;;;;;;4976025;28;20296;-72
2022/05/15 11:36:14;;;;;;;;;;;27.70;99.90;;;;;;4983134;28;20325;-71
2022/05/15 11:38:48;;;;;;;;;;;27.70;99.90;;;;;;4992963;28;20004;-72
2022/05/15 11:41:32;;;;;;;;;;;27.70;99.90;;;;;;4991467;28;19968;-72
2022/05/15 11:43:58;;;;;;;;;;;27.80;99.90;;;;;;5005370;28;20317;-72
2022/05/15 11:46:51;;;;;;;;;;;27.90;99.90;;;;;;4991436;28;20337;-72
2022/05/15 11:49:23;;;;;;;;;;;27.90;99.90;;;;;;4961499;28;20318;-75
2022/05/15 11:52:11;;;;;;;;;;;28.20;99.90;;;;;;4988201;28;20363;-89
2022/05/15 11:54:42;;;;;;;;;;;28.40;99.90;;;;;;4967323;28;20031;-89
2022/05/15 11:57:44;;;;;;;;;;;28.10;99.90;;;;;;4991695;28;19940;-89
2022/05/15 12:00:23;;;;;;;;;;;28.30;99.90;;;;;;4957047;29;19911;-83
2022/05/15 12:06:06;;;;;;;;;;;28.50;99.90;;;;;;4952789;28;19962;-86
2022/05/15 12:08:37;;;;;;;;;;;28.40;99.90;;;;;;4938492;29;19922;-84
2022/05/15 12:11:38;;;;;;;;;;;28.30;99.90;;;;;;4938060;29;19970;-84
2022/05/15 12:14:36;;;;;;;;;;;28.30;99.90;;;;;;4899904;29;19935;-84
2022/05/15 12:17:02;;;;;;;;;;;28.50;99.90;;;;;;4918062;29;19961;-82
2022/05/15 12:19:44;;;;;;;;;;;28.70;99.90;;;;;;4944305;29;19910;-83
2022/05/15 12:22:36;;;;;;;;;;;29.00;99.90;;;;;;4925855;29;19958;-86
2022/05/15 12:25:25;;;;;;;;;;;29.40;99.90;;;;;;4939444;28;19918;-89
2022/05/15 12:37:17;;;;;;;;;;;30.00;99.90;;;;;;4993868;28;19921;-85
2022/05/15 12:40:06;;;;;;;;;;;30.20;99.90;;;;;;4979129;28;19922;-85
2022/05/15 12:43:06;;;;;;;;;;;30.20;99.90;;;;;;4984027;28;19910;-83
2022/05/15 12:45:42;;;;;;;;;;;30.30;99.90;;;;;;4982498;28;19916;-84
2022/05/15 12:48:12;;;;;;;;;;;30.20;99.90;;;;;;4995028;28;19913;-84
2022/05/15 12:53:46;;;;;;;;;;;30.60;99.90;;;;;;5046451;28;19931;-87
2022/05/15 12:59:19;;;;;;;;;;;30.60;99.90;;;;;;5068769;28;19942;-84
2022/05/15 13:02:12;;;;;;;;;;;30.80;99.90;;;;;;5061031;28;19944;-81
2022/05/15 13:04:52;;;;;;;;;;;31.00;99.90;;;;;;5063138;28;19909;-78
2022/05/15 13:07:26;;;;;;;;;;;31.20;99.90;;;;;;5044622;28;20379;-78
2022/05/15 13:10:03;;;;;;;;;;;31.50;99.90;;;;;;5069528;28;19988;-79
2022/05/15 13:12:47;;;;;;;;;;;31.60;99.90;;;;;;5067193;28;19985;-78
2022/05/15 13:15:12;;;;;;;;;;;31.30;99.90;;;;;;5049320;28;19947;-78
2022/05/15 13:17:38;;;;;;;;;;;31.40;99.90;;;;;;5058040;28;19956;-79
2022/05/15 13:20:36;;;;;;;;;;;31.50;99.90;;;;;;5056454;28;19916;-79
2022/05/15 13:23:08;;;;;;;;;;;31.70;99.90;;;;;;5054879;28;19913;-79
2022/05/15 13:25:45;;;;;;;;;;;31.80;99.90;;;;;;5066907;28;19913;-78
2022/05/15 13:28:11;;;;;;;;;;;31.80;99.90;;;;;;5069616;28;19974;-77
2022/05/15 13:30:37;;;;;;;;;;;31.40;99.90;;;;;;5063139;28;19908;-77
2022/05/15 13:33:16;;;;;;;;;;;31.40;99.90;;;;;;5066798;28;20322;-78
2022/05/15 13:35:55;;;;;;;;;;;31.40;99.90;;;;;;5055528;28;19955;-79
2022/05/15 13:38:24;;;;;;;;;;;31.40;99.90;;;;;;5055557;28;20364;-81
2022/05/15 13:43:54;;;;;;;;;;;31.20;99.90;;;;;;5052325;28;19916;-80
2022/05/15 13:46:24;;;;;;;;;;;31.20;99.90;;;;;;5061667;28;19908;-72
2022/05/15 13:48:52;;;;;;;;;;;31.20;99.90;;;;;;5056934;28;19921;-72
2022/05/15 13:51:35;;;;;;;;;;;31.30;99.90;;;;;;5057981;28;19952;-74
2022/05/15 13:54:08;;;;;;;;;;;31.40;99.90;;;;;;5068523;28;19909;-73
2022/05/15 13:56:34;;;;;;;;;;;31.40;99.90;;;;;;5060619;28;20374;-74
2022/05/15 13:58:59;;;;;;;;;;;31.50;99.90;;;;;;5061689;28;19916;-74
2022/05/15 14:01:27;;;;;;;;;;;31.60;99.90;;;;;;5064433;28;19913;-74
2022/05/15 14:03:54;;;;;;;;;;;31.90;99.90;;;;;;5073853;28;19915;-75
2022/05/15 14:06:19;;;;;;;;;;;32.10;99.90;;;;;;5055360;28;19913;-73
2022/05/15 14:08:55;;;;;;;;;;;32.20;99.90;;;;;;5064482;28;19923;-73
2022/05/15 14:11:21;;;;;;;;;;;32.20;99.90;;;;;;5063846;28;20283;-73
2022/05/15 14:13:48;;;;;;;;;;;32.20;99.90;;;;;;5063443;28;19912;-72
2022/05/15 14:16:19;;;;;;;;;;;32.20;99.90;;;;;;5061349;28;19920;-72
2022/05/15 14:18:45;;;;;;;;;;;32.30;99.90;;;;;;5057328;28;19908;-72
2022/05/15 14:21:21;;;;;;;;;;;32.40;99.90;;;;;;5055031;28;20404;-71
2022/05/15 14:23:47;;;;;;;;;;;32.50;99.90;;;;;;5069666;28;19921;-72
2022/05/15 14:26:13;;;;;;;;;;;32.50;99.90;;;;;;5054395;28;19958;-72
2022/05/15 14:28:39;;;;;;;;;;;32.70;99.90;;;;;;5053462;28;19925;-72
2022/05/15 14:31:07;;;;;;;;;;;32.80;99.90;;;;;;5054618;28;19909;-73
2022/05/15 14:33:33;;;;;;;;;;;33.00;99.90;;;;;;5058779;28;20264;-72
2022/05/15 14:36:02;;;;;;;;;;;33.20;99.90;;;;;;5063703;28;19917;-74
2022/05/15 14:38:27;;;;;;;;;;;33.10;99.90;;;;;;5054545;28;19931;-73
2022/05/15 14:40:53;;;;;;;;;;;32.90;99.90;;;;;;5054326;28;20340;-73
2022/05/15 14:43:19;;;;;;;;;;;32.80;99.90;;;;;;5054161;28;19978;-73
2022/05/15 14:45:47;;;;;;;;;;;32.40;99.90;;;;;;5055199;28;19913;-73
2022/05/15 14:48:16;;;;;;;;;;;32.10;99.90;;;;;;5054355;28;19920;-73
2022/05/15 14:50:44;;;;;;;;;;;31.70;99.90;;;;;;5057583;28;20265;-74
2022/05/15 14:53:14;;;;;;;;;;;31.50;99.90;;;;;;5054259;28;19916;-75
2022/05/15 14:58:26;;;;;;;;;;;31.50;99.90;;;;;;5075061;28;19915;-75
2022/05/15 15:00:56;;;;;;;;;;;31.70;99.90;;;;;;5073847;28;19912;-75
2022/05/15 15:03:24;;;;;;;;;;;31.80;99.90;;;;;;5071884;28;19912;-75
2022/05/15 15:05:50;;;;;;;;;;;32.10;99.90;;;;;;5074076;28;19948;-72
2022/05/15 15:08:15;;;;;;;;;;;32.30;99.90;;;;;;5080768;28;20029;-73
2022/05/15 15:10:41;;;;;;;;;;;32.50;99.90;;;;;;5072827;28;20363;-73
2022/05/15 15:13:08;;;;;;;;;;;33.00;99.90;;;;;;5071476;28;20003;-73
2022/05/15 15:15:38;;;;;;;;;;;33.70;99.90;;;;;;5070997;28;20379;-73
2022/05/15 15:18:04;;;;;;;;;;;34.90;99.90;;;;;;5065536;28;19917;-73
2022/05/15 15:20:30;;;;;;;;;;;36.30;99.90;;;;;;5072371;28;19912;-74
2022/05/15 15:23:00;;;;;;;;;;;37.60;99.90;;;;;;5071092;28;19919;-76
2022/05/15 15:25:26;;;;;;;;;;;38.90;99.90;;;;;;5071408;28;19915;-74
2022/05/15 15:27:52;;;;;;;;;;;40.10;99.90;;;;;;5071323;28;19927;-74
2022/05/15 15:30:18;;;;;;;;;;;40.50;99.90;;;;;;5071598;28;20362;-74
2022/05/15 15:33:00;;;;;;;;;;;40.40;99.90;;;;;;5071973;28;19923;-88
2022/05/15 15:35:42;;;;;;;;;;;40.70;99.90;;;;;;5064221;28;19909;-89
2022/05/15 15:38:15;;;;;;;;;;;41.00;99.90;;;;;;5056239;28;19912;-83
2022/05/15 15:40:44;;;;;;;;;;;41.10;99.90;;;;;;5062400;28;19908;-82
2022/05/15 15:43:10;;;;;;;;;;;41.50;99.90;;;;;;5104248;28;20279;-82
2022/05/15 15:45:42;;;;;;;;;;;41.60;99.90;;;;;;5073588;28;19916;-82
2022/05/15 15:48:30;;;;;;;;;;;41.10;99.90;;;;;;5072488;28;19912;-81
2022/05/15 15:51:32;;;;;;;;;;;40.60;99.90;;;;;;5058272;28;19913;-87
2022/05/15 15:54:10;;;;;;;;;;;39.90;99.90;;;;;;5043377;28;20314;-79
2022/05/15 15:56:37;;;;;;;;;;;39.90;99.90;;;;;;5014982;28;20375;-82
2022/05/15 15:59:07;;;;;;;;;;;40.60;99.90;;;;;;5031806;28;19909;-82
2022/05/15 16:01:37;;;;;;;;;;;41.50;99.90;;;;;;5034812;28;19919;-82
2022/05/15 16:04:12;;;;;;;;;;;42.00;99.90;;;;;;5042673;28;19917;-82
2022/05/15 16:06:39;;;;;;;;;;;42.50;99.90;;;;;;5036447;28;20387;-82
2022/05/15 16:09:05;;;;;;;;;;;43.20;99.90;;;;;;5031113;28;19923;-86
2022/05/15 16:11:43;;;;;;;;;;;43.90;99.90;;;;;;5014661;28;19909;-85
2022/05/15 16:14:12;;;;;;;;;;;44.60;99.90;;;;;;5015411;28;19929;-87
2022/05/15 16:16:38;;;;;;;;;;;45.00;99.90;;;;;;5026991;28;19917;-87
2022/05/15 16:19:12;;;;;;;;;;;45.60;99.90;;;;;;5045178;28;20000;-88
2022/05/15 16:21:45;;;;;;;;;;;45.70;99.90;;;;;;5031479;28;19959;-88
2022/05/15 16:24:14;;;;;;;;;;;44.90;99.90;;;;;;5031838;28;20356;-88
2022/05/15 16:26:45;;;;;;;;;;;44.50;99.90;;;;;;5032609;28;19909;-86
2022/05/15 16:29:12;;;;;;;;;;;43.30;99.90;;;;;;5044537;28;19920;-89
2022/05/15 16:31:54;;;;;;;;;;;42.20;99.90;;;;;;5067180;28;19909;-86
2022/05/15 16:34:24;;;;;;;;;;;41.70;99.90;;;;;;5062787;28;19969;-87
2022/05/15 16:37:00;;;;;;;;;;;41.60;99.90;;;;;;5077065;28;19913;-90
2022/05/15 16:42:54;;;;;;;;;;;42.40;99.90;;;;;;5045328;28;19920;-92
2022/05/15 16:45:26;;;;;;;;;;;43.30;99.90;;;;;;5055464;28;20011;-87